Time;durP1;ratioP1;P1;durP2;ratioP2;P2;SDS_P1;SDS_P2;PMS_P1;PMS_P2;Temp;Humidity;BMP_temperature;BMP_pressure;BME280_temperature;BME280_humidity;BME280_pressure;Samples;Min_cycle;Max_cycle;Signal;HPM_P1;HPM_P2
2022/05/12 00:01:06;;;;;;;6.40;4.73;;;21.50;80.20;;;;;;5010971;28;20527;-81
2022/05/12 00:03:32;;;;;;;6.63;4.60;;;21.50;80.30;;;;;;5012163;28;20216;-80
2022/05/12 00:05:57;;;;;;;6.83;4.70;;;21.50;80.40;;;;;;5011748;28;20192;-81
2022/05/12 00:08:23;;;;;;;11.00;4.43;;;21.40;80.30;;;;;;5012612;28;20172;-80
2022/05/12 00:10:49;;;;;;;5.47;4.03;;;21.40;80.60;;;;;;5012796;28;20267;-80
2022/05/12 00:13:15;;;;;;;6.50;4.50;;;21.40;80.80;;;;;;5014425;28;20187;-80
2022/05/12 00:15:42;;;;;;;7.93;4.23;;;21.30;80.90;;;;;;5018221;28;20193;-80
2022/05/12 00:18:08;;;;;;;5.97;3.90;;;21.20;81.20;;;;;;5019408;28;20422;-80
2022/05/12 00:20:37;;;;;;;7.30;4.83;;;21.20;81.40;;;;;;5018124;28;20976;-81
2022/05/12 00:23:16;;;;;;;6.43;4.43;;;21.10;81.60;;;;;;5015332;28;20479;-81
2022/05/12 00:25:44;;;;;;;6.40;4.40;;;21.10;81.70;;;;;;5016728;28;20483;-81
2022/05/12 00:28:11;;;;;;;6.07;4.17;;;21.00;81.80;;;;;;5019506;28;20503;-80
2022/05/12 00:30:37;;;;;;;8.30;4.53;;;21.00;81.80;;;;;;5020132;28;20412;-80
2022/05/12 00:33:03;;;;;;;8.00;4.27;;;20.90;81.70;;;;;;5017991;28;20427;-80
2022/05/12 00:35:29;;;;;;;6.67;4.40;;;20.80;81.70;;;;;;5019428;28;20462;-81
2022/05/12 00:37:54;;;;;;;5.93;4.10;;;20.80;81.40;;;;;;5016398;28;20914;-81
2022/05/12 00:40:20;;;;;;;5.67;3.73;;;20.80;81.50;;;;;;5019094;28;20173;-79
2022/05/12 00:43:03;;;;;;;8.63;4.60;;;20.80;81.10;;;;;;5020710;28;20177;-81
2022/05/12 00:45:35;;;;;;;6.90;5.10;;;20.80;81.00;;;;;;5021151;28;20208;-81
2022/05/12 00:48:02;;;;;;;4.33;3.73;;;20.80;80.50;;;;;;5018827;28;20470;-80
2022/05/12 00:50:36;;;;;;;6.07;3.30;;;20.80;80.20;;;;;;5017563;28;20412;-80
2022/05/12 00:53:04;;;;;;;5.77;3.83;;;20.80;80.20;;;;;;5018208;28;20400;-79
2022/05/12 00:55:36;;;;;;;6.80;3.80;;;20.90;80.10;;;;;;5017339;28;20475;-77
2022/05/12 00:58:06;;;;;;;7.87;4.00;;;20.90;80.00;;;;;;5017513;28;20423;-80
2022/05/12 01:00:32;;;;;;;5.93;3.90;;;20.90;79.70;;;;;;5018678;28;20455;-81
2022/05/12 01:03:01;;;;;;;7.90;4.00;;;20.90;79.80;;;;;;5020193;28;20432;-80
2022/05/12 01:05:30;;;;;;;8.30;3.63;;;20.90;79.70;;;;;;5017882;28;20491;-81
2022/05/12 01:07:56;;;;;;;6.10;3.73;;;20.90;79.70;;;;;;5016941;28;20473;-81
2022/05/12 01:10:24;;;;;;;5.57;3.80;;;20.90;79.60;;;;;;5018505;28;20497;-80
2022/05/12 01:12:51;;;;;;;4.87;3.23;;;20.80;79.80;;;;;;5019736;28;20435;-80
2022/05/12 01:15:19;;;;;;;14.30;3.70;;;20.80;79.80;;;;;;5019307;28;20534;-79
2022/05/12 01:17:46;;;;;;;4.60;3.13;;;20.80;79.70;;;;;;5017678;28;20510;-79
2022/05/12 01:20:13;;;;;;;6.43;3.77;;;20.70;79.50;;;;;;5012819;28;20424;-79
2022/05/12 01:22:56;;;;;;;8.20;3.53;;;20.70;79.60;;;;;;5013524;28;20404;-79
2022/05/12 01:25:27;;;;;;;7.60;3.67;;;20.70;79.60;;;;;;5012112;28;20846;-79
2022/05/12 01:27:53;;;;;;;6.17;3.87;;;20.70;79.60;;;;;;5012053;28;20930;-78
2022/05/12 01:30:21;;;;;;;3.50;3.00;;;20.70;79.60;;;;;;5012720;28;20412;-79
2022/05/12 01:32:47;;;;;;;7.53;3.63;;;20.70;79.40;;;;;;5012657;28;20682;-79
2022/05/12 01:35:15;;;;;;;6.00;3.10;;;20.70;79.30;;;;;;5012808;28;20479;-80
2022/05/12 01:37:42;;;;;;;4.60;3.00;;;20.70;79.10;;;;;;5012735;28;20419;-79
2022/05/12 01:40:11;;;;;;;6.03;3.57;;;20.70;79.00;;;;;;5012393;28;20439;-79
2022/05/12 01:42:36;;;;;;;5.90;3.30;;;20.70;78.80;;;;;;5011724;28;20439;-80
2022/05/12 01:45:03;;;;;;;4.20;3.20;;;20.70;79.00;;;;;;5011503;28;20973;-79
2022/05/12 01:47:29;;;;;;;2.93;2.80;;;20.70;78.80;;;;;;5012029;28;20189;-78
2022/05/12 01:49:55;;;;;;;5.20;2.70;;;20.70;78.70;;;;;;5012447;28;20416;-77
2022/05/12 01:52:21;;;;;;;4.03;3.00;;;20.70;78.40;;;;;;5011669;28;20968;-78
2022/05/12 01:54:46;;;;;;;6.33;3.20;;;20.70;78.50;;;;;;5010927;28;20543;-79
2022/05/12 01:57:12;;;;;;;5.63;2.70;;;20.70;78.40;;;;;;5011293;28;20181;-79
2022/05/12 01:59:37;;;;;;;7.83;3.50;;;20.70;78.40;;;;;;5011399;28;20663;-79
2022/05/12 02:02:03;;;;;;;3.30;2.67;;;20.70;78.20;;;;;;5011382;28;20631;-78
2022/05/12 02:04:29;;;;;;;4.97;3.13;;;20.70;78.20;;;;;;5011289;28;20287;-81
2022/05/12 02:06:55;;;;;;;4.60;3.00;;;20.70;78.10;;;;;;5012388;28;20958;-79
2022/05/12 02:09:20;;;;;;;3.13;2.73;;;20.70;78.00;;;;;;5011064;28;20635;-78
2022/05/12 02:11:46;;;;;;;5.37;3.33;;;20.60;78.10;;;;;;5011636;28;20180;-79
2022/05/12 02:14:12;;;;;;;6.73;2.63;;;20.60;77.90;;;;;;5013185;28;20201;-79
2022/05/12 02:16:38;;;;;;;7.33;2.60;;;20.60;77.70;;;;;;5011328;28;20228;-80
2022/05/12 02:19:05;;;;;;;4.87;3.20;;;20.60;77.60;;;;;;5012646;28;20628;-80
2022/05/12 02:21:32;;;;;;;5.60;3.40;;;20.60;77.60;;;;;;5013178;28;20480;-80
2022/05/12 02:23:58;;;;;;;5.40;2.80;;;20.60;77.70;;;;;;5013149;28;21054;-79
2022/05/12 02:26:24;;;;;;;4.20;3.27;;;20.60;78.00;;;;;;5010885;28;20515;-79
2022/05/12 02:28:50;;;;;;;4.00;2.40;;;20.50;78.10;;;;;;5011660;28;20204;-79
2022/05/12 02:31:15;;;;;;;4.53;2.90;;;20.40;78.30;;;;;;5010750;28;20443;-79
2022/05/12 02:33:41;;;;;;;3.90;2.80;;;20.40;78.20;;;;;;5010798;28;20639;-80
2022/05/12 02:36:06;;;;;;;6.40;2.77;;;20.30;78.30;;;;;;5011808;28;20576;-80
2022/05/12 02:38:32;;;;;;;4.13;2.57;;;20.30;78.40;;;;;;5011490;28;20181;-77
2022/05/12 02:40:58;;;;;;;3.70;2.60;;;20.30;78.40;;;;;;5011104;28;20177;-79
2022/05/12 02:43:23;;;;;;;4.90;2.70;;;20.30;78.50;;;;;;5011653;28;20177;-77
2022/05/12 02:46:05;;;;;;;5.40;3.10;;;20.30;78.80;;;;;;5011224;28;20205;-76
2022/05/12 02:48:35;;;;;;;5.97;3.90;;;20.20;80.10;;;;;;5010135;28;20181;-76
2022/05/12 02:51:01;;;;;;;10.40;3.90;;;20.10;83.10;;;;;;5009528;28;20450;-77
2022/05/12 02:53:28;;;;;;;7.47;4.40;;;19.90;84.60;;;;;;5010075;28;20477;-76
2022/05/12 02:55:53;;;;;;;6.70;4.50;;;19.70;85.90;;;;;;5009736;28;20468;-77
2022/05/12 02:58:19;;;;;;;13.73;4.63;;;19.50;87.50;;;;;;5010327;28;20427;-76
2022/05/12 03:00:48;;;;;;;13.40;5.70;;;19.40;88.90;;;;;;5009170;28;20177;-76
2022/05/12 03:03:14;;;;;;;9.57;4.90;;;19.20;89.90;;;;;;5011348;28;20420;-77
2022/05/12 03:05:41;;;;;;;10.43;5.00;;;19.10;90.80;;;;;;5009731;28;20471;-77
2022/05/12 03:08:07;;;;;;;10.87;5.00;;;18.90;91.30;;;;;;5010043;28;20631;-76
2022/05/12 03:10:34;;;;;;;7.50;4.60;;;18.80;91.80;;;;;;5010158;28;20446;-77
2022/05/12 03:13:00;;;;;;;10.07;4.90;;;18.70;92.20;;;;;;5010039;28;20427;-76
2022/05/12 03:15:26;;;;;;;13.63;5.20;;;18.60;92.80;;;;;;5010522;28;20582;-76
2022/05/12 03:17:52;;;;;;;9.70;4.90;;;18.40;93.10;;;;;;5009860;28;20522;-77
2022/05/12 03:20:22;;;;;;;7.40;4.77;;;18.30;93.60;;;;;;5009494;28;20615;-75
2022/05/12 03:22:48;;;;;;;8.57;5.00;;;18.20;94.00;;;;;;5010375;28;20270;-80
2022/05/12 03:25:16;;;;;;;10.40;4.73;;;18.10;94.40;;;;;;5010605;28;20558;-79
2022/05/12 03:27:42;;;;;;;9.70;4.60;;;18.00;94.60;;;;;;5010692;28;20416;-79
2022/05/12 03:30:11;;;;;;;10.60;4.50;;;18.00;94.70;;;;;;5010277;28;20522;-79
2022/05/12 03:32:37;;;;;;;9.63;4.40;;;17.90;94.90;;;;;;5009829;28;20416;-78
2022/05/12 03:35:03;;;;;;;6.40;4.10;;;17.90;95.00;;;;;;5011667;28;20446;-78
2022/05/12 03:37:29;;;;;;;6.93;3.93;;;17.80;95.10;;;;;;5010962;28;20181;-78
2022/05/12 03:39:55;;;;;;;10.03;4.53;;;17.80;95.20;;;;;;5010652;28;20427;-79
2022/05/12 03:42:20;;;;;;;8.37;4.13;;;17.80;95.30;;;;;;5008909;28;20212;-78
2022/05/12 03:44:46;;;;;;;10.33;4.30;;;17.70;95.50;;;;;;5010256;28;20205;-78
2022/05/12 03:47:24;;;;;;;12.37;4.33;;;17.60;95.70;;;;;;5009316;28;20177;-78
2022/05/12 03:49:52;;;;;;;12.73;4.90;;;17.60;95.80;;;;;;5010875;28;20794;-79
2022/05/12 03:52:18;;;;;;;10.07;5.37;;;17.60;95.90;;;;;;5010488;28;20424;-78
2022/05/12 03:54:44;;;;;;;10.43;4.70;;;17.50;96.00;;;;;;5010253;28;20547;-78
2022/05/12 03:57:12;;;;;;;10.03;4.40;;;17.50;96.20;;;;;;5008960;28;20489;-78
2022/05/12 03:59:39;;;;;;;10.93;5.60;;;17.50;96.40;;;;;;5009315;28;20423;-78
2022/05/12 04:02:06;;;;;;;9.30;4.50;;;17.40;96.50;;;;;;5010421;28;20426;-78
2022/05/12 04:04:32;;;;;;;6.97;4.30;;;17.40;96.70;;;;;;5009520;28;20470;-78
2022/05/12 04:06:58;;;;;;;7.03;4.07;;;17.40;96.80;;;;;;5009535;28;20961;-78
2022/05/12 04:09:25;;;;;;;11.70;4.70;;;17.40;96.80;;;;;;5009021;28;20459;-78
2022/05/12 04:11:50;;;;;;;9.43;4.67;;;17.40;96.90;;;;;;5010006;28;20973;-77
2022/05/12 04:14:16;;;;;;;12.00;4.73;;;17.40;97.00;;;;;;5009825;28;20507;-77
2022/05/12 04:16:42;;;;;;;9.97;4.47;;;17.40;97.10;;;;;;5009972;28;20284;-77
2022/05/12 04:19:07;;;;;;;8.70;4.73;;;17.40;97.10;;;;;;5010100;28;20188;-77
2022/05/12 04:21:34;;;;;;;9.23;4.53;;;17.40;97.00;;;;;;5009149;28;20238;-77
2022/05/12 04:24:05;;;;;;;19.40;5.90;;;17.40;97.00;;;;;;5008346;28;20260;-77
2022/05/12 04:26:32;;;;;;;10.30;4.20;;;17.40;97.10;;;;;;5009844;28;20431;-76
2022/05/12 04:28:57;;;;;;;11.50;4.57;;;17.30;96.90;;;;;;5009236;28;20787;-77
2022/05/12 04:31:23;;;;;;;12.70;4.93;;;17.30;97.10;;;;;;5009079;28;20424;-77
2022/05/12 04:36:33;;;;;;;8.50;3.87;;;17.30;97.20;;;;;;5009774;28;20376;-78
2022/05/12 04:38:59;;;;;;;10.03;5.07;;;17.30;97.20;;;;;;5010132;28;20412;-77
2022/05/12 04:41:26;;;;;;;6.70;3.97;;;17.30;97.20;;;;;;5008550;28;20188;-77
2022/05/12 04:43:52;;;;;;;10.20;4.20;;;17.30;97.10;;;;;;5008501;28;20400;-77
2022/05/12 04:46:18;;;;;;;7.23;3.70;;;17.30;97.10;;;;;;5008513;28;20444;-77
2022/05/12 04:48:43;;;;;;;9.57;3.90;;;17.30;97.30;;;;;;5008137;28;20306;-78
2022/05/12 04:51:09;;;;;;;9.20;3.83;;;17.30;97.30;;;;;;5008472;28;21037;-77
2022/05/12 04:53:35;;;;;;;9.50;4.10;;;17.30;97.30;;;;;;5008240;28;20252;-77
2022/05/12 04:56:01;;;;;;;13.07;4.10;;;17.30;97.30;;;;;;5008294;28;20232;-77
2022/05/12 04:58:26;;;;;;;5.47;3.30;;;17.30;97.30;;;;;;5008688;28;20177;-77
2022/05/12 05:00:52;;;;;;;4.73;2.97;;;17.30;96.70;;;;;;5010109;28;20184;-77
2022/05/12 05:03:18;;;;;;;4.70;2.50;;;17.40;96.40;;;;;;5008852;28;20184;-77
2022/05/12 05:05:44;;;;;;;12.77;2.50;;;17.40;94.80;;;;;;5008130;28;20213;-77
2022/05/12 05:08:13;;;;;;;5.77;2.57;;;17.40;93.90;;;;;;5008738;28;20269;-78
2022/05/12 05:10:39;;;;;;;6.17;2.30;;;17.50;93.50;;;;;;5008629;28;20421;-78
2022/05/12 05:13:05;;;;;;;6.20;2.20;;;17.50;92.80;;;;;;5008540;28;20472;-77
2022/05/12 05:15:31;;;;;;;7.67;2.30;;;17.60;92.20;;;;;;5008211;28;20439;-78
2022/05/12 05:17:57;;;;;;;3.93;1.93;;;17.60;91.70;;;;;;5008390;28;20216;-78
2022/05/12 05:20:26;;;;;;;3.43;1.93;;;17.60;91.30;;;;;;5008057;28;20272;-78
2022/05/12 05:22:52;;;;;;;6.77;2.10;;;17.60;91.50;;;;;;5010071;28;20416;-77
2022/05/12 05:25:18;;;;;;;6.57;2.00;;;17.60;91.60;;;;;;5017150;28;20571;-81
2022/05/12 05:27:45;;;;;;;4.13;1.80;;;17.60;91.70;;;;;;5017561;28;20412;-82
2022/05/12 05:30:14;;;;;;;4.23;1.83;;;17.70;91.80;;;;;;5016084;28;20177;-80
2022/05/12 05:32:40;;;;;;;6.83;2.40;;;17.70;91.50;;;;;;5015465;28;20469;-80
2022/05/12 05:35:07;;;;;;;4.33;1.80;;;17.60;91.60;;;;;;5015214;28;20531;-81
2022/05/12 05:37:33;;;;;;;4.50;2.03;;;17.60;91.60;;;;;;5017408;28;20191;-82
2022/05/12 05:39:58;;;;;;;5.20;1.93;;;17.60;91.70;;;;;;5017935;28;20459;-80
2022/05/12 05:42:24;;;;;;;5.57;2.60;;;17.60;91.80;;;;;;5018231;28;20238;-80
2022/05/12 05:44:50;;;;;;;5.63;2.37;;;17.60;92.10;;;;;;5033909;28;20592;-80
2022/05/12 05:47:16;;;;;;;2.60;2.10;;;17.70;92.60;;;;;;5018831;28;20173;-80
2022/05/12 05:49:42;;;;;;;4.20;2.10;;;17.70;92.10;;;;;;5015852;28;20180;-81
2022/05/12 05:54:53;;;;;;;5.13;1.63;;;17.80;90.20;;;;;;5016551;28;20670;-81
2022/05/12 05:57:25;;;;;;;2.27;1.60;;;17.70;88.10;;;;;;5016585;28;20448;-82
2022/05/12 05:59:52;;;;;;;5.10;1.83;;;17.70;86.90;;;;;;5016572;28;20770;-83
2022/05/12 06:02:18;;;;;;;3.23;1.43;;;17.70;86.20;;;;;;5014817;28;20508;-79
2022/05/12 06:04:44;;;;;;;4.83;1.50;;;17.70;84.10;;;;;;5014515;28;21043;-81
2022/05/12 06:07:10;;;;;;;4.27;1.60;;;17.70;84.20;;;;;;5013122;28;20444;-80
2022/05/12 06:09:35;;;;;;;4.23;1.73;;;17.70;84.30;;;;;;5013040;28;20623;-79
2022/05/12 06:12:01;;;;;;;3.20;1.40;;;17.70;84.90;;;;;;5013422;28;20173;-80
2022/05/12 06:14:30;;;;;;;2.10;1.17;;;17.70;85.30;;;;;;5015248;28;20244;-79
2022/05/12 06:16:55;;;;;;;2.70;1.50;;;17.70;84.10;;;;;;5013284;28;20463;-81
2022/05/12 06:19:21;;;;;;;4.63;1.80;;;17.70;83.90;;;;;;5015371;28;20576;-79
2022/05/12 06:21:49;;;;;;;3.30;1.70;;;17.70;84.20;;;;;;5015525;28;20242;-81
2022/05/12 06:24:15;;;;;;;2.97;1.83;;;17.70;85.20;;;;;;5012648;28;20213;-80
2022/05/12 06:26:40;;;;;;;5.30;1.73;;;17.70;87.30;;;;;;5012160;28;20819;-80
2022/05/12 06:29:06;;;;;;;3.63;1.70;;;17.70;89.10;;;;;;5013665;28;20204;-81
2022/05/12 06:31:33;;;;;;;2.83;1.70;;;17.60;90.00;;;;;;5013435;28;20177;-81
2022/05/12 06:33:59;;;;;;;7.83;2.20;;;17.60;90.70;;;;;;5014809;28;20603;-82
2022/05/12 06:36:25;;;;;;;8.07;2.53;;;17.40;90.10;;;;;;5014772;28;20436;-80
2022/05/12 06:38:51;;;;;;;5.07;1.90;;;17.30;90.40;;;;;;5015067;28;20416;-81
2022/05/12 06:41:17;;;;;;;5.73;2.00;;;17.30;91.20;;;;;;5014158;28;20424;-81
2022/05/12 06:43:45;;;;;;;4.43;1.90;;;17.30;90.60;;;;;;5013698;28;20450;-80
2022/05/12 06:46:15;;;;;;;3.83;1.97;;;17.20;89.60;;;;;;5012272;28;20514;-79
2022/05/12 06:48:42;;;;;;;3.03;1.87;;;17.00;90.10;;;;;;5012329;28;20502;-80
2022/05/12 06:51:08;;;;;;;5.17;2.00;;;17.00;90.00;;;;;;5013217;28;20424;-81
2022/05/12 06:53:34;;;;;;;5.73;1.60;;;17.00;89.60;;;;;;5012619;28;20496;-82
2022/05/12 06:55:59;;;;;;;8.70;1.77;;;16.90;87.80;;;;;;5011891;28;20790;-80
2022/05/12 06:58:25;;;;;;;3.37;1.50;;;16.90;88.00;;;;;;5012492;28;20684;-78
2022/05/12 07:00:50;;;;;;;2.27;1.47;;;16.80;86.90;;;;;;5011968;28;20670;-80
2022/05/12 07:03:17;;;;;;;9.00;1.60;;;16.80;86.20;;;;;;5012243;28;20181;-78
2022/05/12 07:05:44;;;;;;;2.97;1.60;;;16.80;85.90;;;;;;5012277;28;20747;-80
2022/05/12 07:08:10;;;;;;;2.80;1.20;;;16.80;85.60;;;;;;5011547;28;20431;-79
2022/05/12 07:10:36;;;;;;;4.10;1.67;;;16.80;85.90;;;;;;5011025;28;20416;-79
2022/05/12 07:13:02;;;;;;;2.30;1.20;;;16.80;85.90;;;;;;5012067;28;20438;-79
2022/05/12 07:15:28;;;;;;;2.50;1.30;;;16.80;86.00;;;;;;5010406;28;20207;-79
2022/05/12 07:17:55;;;;;;;1.93;1.53;;;16.90;85.80;;;;;;5010870;28;20656;-80
2022/05/12 07:28:36;;;;;;;2.77;1.40;;;16.90;85.20;;;;;;5010784;28;20411;-77
2022/05/12 07:31:03;;;;;;;2.63;2.30;;;17.00;85.40;;;;;;5009150;28;20891;-77
2022/05/12 07:33:30;;;;;;;4.30;1.10;;;16.90;85.00;;;;;;5010397;28;20459;-78
2022/05/12 07:35:57;;;;;;;2.03;1.17;;;17.00;85.00;;;;;;5009570;28;20530;-80
2022/05/12 07:38:22;;;;;;;2.30;1.30;;;16.90;85.10;;;;;;5010569;28;20769;-78
2022/05/12 07:40:48;;;;;;;1.90;1.20;;;16.90;85.20;;;;;;5009000;28;20503;-77
2022/05/12 07:43:14;;;;;;;6.80;1.40;;;17.00;85.90;;;;;;5010482;28;20177;-77
2022/05/12 07:45:40;;;;;;;4.00;1.40;;;17.10;85.50;;;;;;5009011;28;20258;-76
2022/05/12 07:48:06;;;;;;;2.37;1.40;;;17.10;84.90;;;;;;5008752;28;20549;-76
2022/05/12 07:50:32;;;;;;;2.47;1.40;;;17.10;84.40;;;;;;5008603;28;20423;-77
2022/05/12 07:52:58;;;;;;;1.90;1.00;;;17.10;85.60;;;;;;5009185;28;20415;-76
2022/05/12 07:55:24;;;;;;;2.97;1.50;;;17.20;84.30;;;;;;5008831;28;20452;-76
2022/05/12 07:57:51;;;;;;;8.63;1.10;;;17.20;84.80;;;;;;5009211;28;21001;-76
2022/05/12 08:00:17;;;;;;;6.43;1.53;;;17.10;84.40;;;;;;5008668;28;20720;-77
2022/05/12 08:02:42;;;;;;;1.53;1.20;;;17.10;84.40;;;;;;5009143;28;20420;-77
2022/05/12 08:05:09;;;;;;;1.93;1.20;;;17.20;84.90;;;;;;5008917;28;20467;-77
2022/05/12 08:07:34;;;;;;;3.30;1.20;;;17.30;85.40;;;;;;5008951;28;20173;-77
2022/05/12 08:10:01;;;;;;;4.03;1.40;;;17.30;85.80;;;;;;5010416;28;20444;-77
2022/05/12 08:12:27;;;;;;;3.70;1.40;;;17.40;85.70;;;;;;5009207;28;20220;-77
2022/05/12 08:14:53;;;;;;;1.97;1.30;;;17.50;84.10;;;;;;5009037;28;20526;-77
2022/05/12 08:17:19;;;;;;;4.47;1.63;;;17.60;85.00;;;;;;5008991;28;20684;-78
2022/05/12 08:19:44;;;;;;;3.23;1.30;;;17.60;84.00;;;;;;5008329;28;20527;-76
2022/05/12 08:22:10;;;;;;;1.30;1.00;;;17.60;84.10;;;;;;5008486;28;20235;-77
2022/05/12 08:24:35;;;;;;;3.47;1.60;;;17.60;83.50;;;;;;5009862;28;20203;-76
2022/05/12 08:27:02;;;;;;;3.33;1.30;;;17.70;84.00;;;;;;5009927;28;20642;-77
2022/05/12 08:29:27;;;;;;;2.50;1.13;;;17.70;84.00;;;;;;5009758;28;20209;-76
2022/05/12 08:31:53;;;;;;;1.90;1.37;;;17.70;82.80;;;;;;5008143;28;20467;-76
2022/05/12 08:34:18;;;;;;;3.50;1.33;;;17.70;83.00;;;;;;5009590;28;20243;-77
2022/05/12 08:36:44;;;;;;;2.00;1.10;;;17.80;83.10;;;;;;5008277;28;20207;-77
2022/05/12 08:39:10;;;;;;;1.60;1.50;;;17.80;82.40;;;;;;5008207;28;20269;-76
2022/05/12 08:41:50;;;;;;;5.17;1.50;;;17.80;81.80;;;;;;5008201;28;20177;-76
2022/05/12 08:44:20;;;;;;;2.40;1.27;;;17.80;81.90;;;;;;5008256;28;20208;-76
2022/05/12 08:46:53;;;;;;;5.93;1.70;;;18.00;81.50;;;;;;5008050;28;20439;-76
2022/05/12 08:49:39;;;;;;;2.80;1.33;;;18.00;81.60;;;;;;5008018;28;20761;-76
2022/05/12 08:52:11;;;;;;;1.97;1.40;;;18.10;80.40;;;;;;5009680;28;20435;-76
2022/05/12 08:54:42;;;;;;;5.33;1.30;;;18.10;80.50;;;;;;5007929;28;20475;-77
2022/05/12 08:57:27;;;;;;;4.67;1.63;;;18.20;80.70;;;;;;5008186;28;20981;-76
2022/05/12 08:59:53;;;;;;;2.20;1.10;;;18.20;80.00;;;;;;5010632;28;20451;-77
2022/05/12 09:03:02;;;;;;;4.20;1.43;;;18.30;80.40;;;;;;5013562;28;20443;-77
2022/05/12 09:05:33;;;;;;;3.00;1.30;;;18.30;80.10;;;;;;4989185;28;20566;-77
2022/05/12 09:08:08;;;;;;;3.00;1.33;;;18.40;79.50;;;;;;5012271;28;20637;-78
2022/05/12 09:10:57;;;;;;;2.57;1.30;;;18.50;79.30;;;;;;5011714;28;20928;-76
2022/05/12 09:13:31;;;;;;;1.60;1.13;;;18.60;79.20;;;;;;5013037;28;21045;-77
2022/05/12 09:16:09;;;;;;;2.20;1.30;;;18.60;78.20;;;;;;5011612;28;20576;-76
2022/05/12 09:18:36;;;;;;;2.03;1.30;;;18.60;79.30;;;;;;5013238;28;20412;-76
2022/05/12 09:21:09;;;;;;;5.37;1.50;;;18.70;78.90;;;;;;5012831;28;20419;-77
2022/05/12 09:23:35;;;;;;;2.90;1.63;;;18.70;78.10;;;;;;5011340;28;20462;-77
2022/05/12 09:26:21;;;;;;;3.33;1.60;;;18.80;78.40;;;;;;5011464;28;20479;-75
2022/05/12 09:28:47;;;;;;;2.47;1.40;;;18.80;79.50;;;;;;5013110;28;20437;-76
2022/05/12 09:31:12;;;;;;;7.73;1.53;;;18.90;77.70;;;;;;5012536;28;20459;-76
2022/05/12 09:33:38;;;;;;;2.70;1.30;;;19.00;77.90;;;;;;5012660;28;20574;-76
2022/05/12 09:36:08;;;;;;;2.93;1.17;;;19.10;78.10;;;;;;5011257;28;20201;-76
2022/05/12 09:38:43;;;;;;;2.67;1.30;;;19.20;78.00;;;;;;4992923;28;20436;-78
2022/05/12 09:41:42;;;;;;;5.13;1.53;;;19.20;77.20;;;;;;5007867;28;20420;-77
2022/05/12 09:44:28;;;;;;;6.07;1.40;;;19.20;78.50;;;;;;4992978;28;20416;-76
2022/05/12 09:47:16;;;;;;;4.90;1.50;;;19.30;78.00;;;;;;4992771;28;20515;-76
2022/05/12 09:49:44;;;;;;;3.53;1.37;;;19.30;77.60;;;;;;5007981;28;20519;-76
2022/05/12 09:52:35;;;;;;;3.90;1.17;;;19.40;77.50;;;;;;4992920;28;20982;-75
2022/05/12 09:55:20;;;;;;;4.40;1.40;;;19.50;76.90;;;;;;5008190;28;20476;-76
2022/05/12 09:57:51;;;;;;;2.80;1.30;;;19.50;76.20;;;;;;4992720;28;20413;-76
2022/05/12 10:00:40;;;;;;;9.33;1.33;;;19.60;76.80;;;;;;5007659;28;20487;-76
2022/05/12 10:09:26;;;;;;;4.70;1.30;;;19.60;77.30;;;;;;4992574;28;20416;-76
2022/05/12 10:11:54;;;;;;;2.73;1.33;;;19.80;77.10;;;;;;4912229;29;20495;-76
2022/05/12 10:14:41;;;;;;;3.67;1.13;;;19.80;78.50;;;;;;4978036;28;20559;-77
2022/05/12 10:17:28;;;;;;;5.43;1.43;;;19.90;76.80;;;;;;4992352;28;20487;-76
2022/05/12 10:19:54;;;;;;;1.73;1.40;;;20.00;77.00;;;;;;4992315;28;20918;-76
2022/05/12 10:22:30;;;;;;;2.50;1.40;;;20.10;76.10;;;;;;4991968;28;20902;-77
2022/05/12 10:25:21;;;;;;;4.70;1.20;;;20.10;76.70;;;;;;5007041;28;20469;-76
2022/05/12 10:27:57;;;;;;;5.70;1.37;;;20.00;76.70;;;;;;4992049;28;20496;-77
2022/05/12 10:30:51;;;;;;;6.30;1.20;;;20.00;76.40;;;;;;5007055;28;20424;-77
2022/05/12 10:33:41;;;;;;;1.63;1.23;;;19.90;76.50;;;;;;4991018;28;20484;-76
2022/05/12 10:36:28;;;;;;;2.73;1.50;;;19.90;77.80;;;;;;4991844;28;20506;-76
2022/05/12 10:39:16;;;;;;;5.83;1.50;;;20.00;76.40;;;;;;4992164;28;20424;-76
2022/05/12 10:42:14;;;;;;;2.80;1.30;;;20.10;75.80;;;;;;4991171;28;21128;-76
2022/05/12 10:45:10;;;;;;;2.93;1.23;;;20.10;74.90;;;;;;5007113;28;20471;-77
2022/05/12 10:47:44;;;;;;;3.20;1.20;;;19.90;76.10;;;;;;4992062;28;20826;-77
2022/05/12 10:50:18;;;;;;;1.90;1.57;;;20.00;76.70;;;;;;5007101;28;20423;-76
2022/05/12 10:52:50;;;;;;;1.53;1.30;;;20.10;77.60;;;;;;4992090;28;20907;-76
2022/05/12 10:55:35;;;;;;;2.50;1.47;;;20.20;75.50;;;;;;4991467;28;20655;-76
2022/05/12 10:58:20;;;;;;;3.33;1.37;;;20.30;74.70;;;;;;5006425;28;20421;-76
2022/05/12 11:01:09;;;;;;;4.73;1.53;;;20.50;74.70;;;;;;4990120;28;20578;-75
2022/05/12 11:03:43;;;;;;;1.70;1.30;;;20.60;75.00;;;;;;5006226;28;20460;-76
2022/05/12 11:06:13;;;;;;;2.90;1.30;;;20.60;75.30;;;;;;4991490;28;20495;-77
2022/05/12 11:08:49;;;;;;;2.83;1.60;;;20.60;75.80;;;;;;4990019;28;20479;-77
2022/05/12 11:11:22;;;;;;;3.73;1.40;;;20.80;75.70;;;;;;4990057;28;20409;-77
2022/05/12 11:14:04;;;;;;;3.70;1.30;;;20.90;73.60;;;;;;4989836;28;20424;-76
2022/05/12 11:16:36;;;;;;;5.87;1.60;;;21.00;73.70;;;;;;4991158;28;20445;-75
2022/05/12 11:19:11;;;;;;;4.30;0.97;;;21.10;74.30;;;;;;4991037;28;20409;-76
2022/05/12 11:22:09;;;;;;;4.23;1.30;;;21.20;74.20;;;;;;4989114;28;20415;-76
2022/05/12 11:24:58;;;;;;;1.70;1.40;;;21.30;74.60;;;;;;4988907;28;20461;-76
2022/05/12 11:27:34;;;;;;;4.23;1.43;;;21.30;73.40;;;;;;4977783;28;20437;-80
2022/05/12 11:30:22;;;;;;;2.30;1.20;;;21.30;74.90;;;;;;4993458;28;20775;-79
2022/05/12 11:33:07;;;;;;;5.77;1.50;;;21.50;73.70;;;;;;4991160;28;20431;-80
2022/05/12 11:35:43;;;;;;;3.43;1.10;;;21.50;73.50;;;;;;5008058;28;20520;-80
2022/05/12 11:38:30;;;;;;;3.53;1.40;;;21.60;74.80;;;;;;5004421;28;20424;-80
2022/05/12 11:40:55;;;;;;;3.17;1.43;;;21.70;73.50;;;;;;5007050;28;20425;-81
2022/05/12 11:46:41;;;;;;;3.43;1.17;;;21.90;73.80;;;;;;4992489;28;20310;-80
2022/05/12 11:49:26;;;;;;;3.17;1.30;;;22.00;72.50;;;;;;5007125;28;20417;-82
2022/05/12 11:52:13;;;;;;;3.80;1.87;;;21.90;73.50;;;;;;5008032;28;20405;-80
2022/05/12 11:54:59;;;;;;;2.40;1.40;;;21.90;75.40;;;;;;5007684;28;20472;-80
2022/05/12 11:57:32;;;;;;;3.93;1.60;;;22.00;69.40;;;;;;5010357;28;20425;-81
2022/05/12 12:00:00;;;;;;;1.03;0.97;;;22.10;67.30;;;;;;5010289;28;20449;-83
2022/05/12 12:02:28;;;;;;;3.43;1.60;;;22.20;66.00;;;;;;4996082;28;20762;-83
2022/05/12 12:05:00;;;;;;;2.00;1.00;;;22.40;64.50;;;;;;5010339;28;20465;-82
2022/05/12 12:07:31;;;;;;;2.67;1.20;;;22.50;65.70;;;;;;4997322;28;20430;-81
2022/05/12 12:09:58;;;;;;;2.90;1.40;;;22.70;64.80;;;;;;5015161;28;20500;-80
2022/05/12 12:13:09;;;;;;;3.23;1.40;;;22.70;64.80;;;;;;5016537;28;20429;-82
2022/05/12 12:15:39;;;;;;;3.07;1.20;;;22.80;64.40;;;;;;4992513;28;20962;-81
2022/05/12 12:18:21;;;;;;;2.50;1.30;;;22.90;63.40;;;;;;5010808;28;20421;-80
2022/05/12 12:20:50;;;;;;;3.53;1.40;;;22.90;61.00;;;;;;5013757;28;20475;-78
2022/05/12 12:23:24;;;;;;;3.47;1.10;;;22.90;61.00;;;;;;5007870;28;20429;-80
2022/05/12 12:26:22;;;;;;;4.10;1.27;;;22.80;60.80;;;;;;5011930;28;20468;-80
2022/05/12 12:29:09;;;;;;;1.43;1.43;;;22.80;63.10;;;;;;5011651;28;20847;-82
2022/05/12 12:31:37;;;;;;;1.87;1.70;;;22.90;62.40;;;;;;5010041;28;20420;-80
2022/05/12 12:34:21;;;;;;;5.90;1.67;;;22.90;63.00;;;;;;5012270;28;20445;-80
2022/05/12 12:37:06;;;;;;;4.07;1.70;;;23.10;64.10;;;;;;5014146;28;20433;-81
2022/05/12 12:39:41;;;;;;;3.63;1.50;;;23.20;62.10;;;;;;5016116;28;20451;-80
2022/05/12 12:42:31;;;;;;;1.27;1.10;;;23.10;59.20;;;;;;5015012;28;20742;-80
2022/05/12 12:45:18;;;;;;;4.23;1.17;;;23.20;58.50;;;;;;5015357;28;20468;-79
2022/05/12 12:48:07;;;;;;;3.07;1.20;;;23.10;60.10;;;;;;5012593;28;20826;-80
2022/05/12 12:50:40;;;;;;;4.57;1.57;;;23.20;59.70;;;;;;5012989;28;20420;-81
2022/05/12 12:53:07;;;;;;;2.10;1.30;;;23.20;61.80;;;;;;5012064;28;20416;-79
2022/05/12 12:58:46;;;;;;;1.40;1.20;;;23.40;61.20;;;;;;4999834;28;20463;-81
2022/05/12 13:01:19;;;;;;;2.70;1.30;;;23.50;60.10;;;;;;5014873;28;20727;-81
2022/05/12 13:03:52;;;;;;;4.63;1.47;;;23.70;60.80;;;;;;5013975;28;20845;-80
2022/05/12 13:06:36;;;;;;;2.57;1.50;;;23.80;61.00;;;;;;5012708;28;20504;-81
2022/05/12 13:09:13;;;;;;;2.97;1.37;;;23.80;60.70;;;;;;5014209;28;20420;-81
2022/05/12 13:11:41;;;;;;;3.43;1.50;;;23.80;62.60;;;;;;5015162;28;20425;-81
2022/05/12 13:14:08;;;;;;;1.77;1.10;;;23.90;60.40;;;;;;5016479;28;20451;-82
2022/05/12 13:16:39;;;;;;;3.13;1.40;;;23.90;61.10;;;;;;5014333;28;20468;-80
2022/05/12 13:19:07;;;;;;;3.03;1.10;;;23.90;58.80;;;;;;5013438;28;20945;-80
2022/05/12 13:21:42;;;;;;;4.73;1.20;;;23.90;59.50;;;;;;5012504;28;20421;-81
2022/05/12 13:24:19;;;;;;;3.40;1.40;;;23.80;61.30;;;;;;5012400;28;20794;-82
2022/05/12 13:26:47;;;;;;;2.80;1.67;;;23.80;61.40;;;;;;5013585;28;20436;-82
2022/05/12 13:29:22;;;;;;;2.50;1.33;;;23.90;63.40;;;;;;5012179;28;20447;-81